sensor_id;sensor_type;location;lat;lon;timestamp;P1;durP1;ratioP1;P2;durP2;ratioP2
74469;SDS011;62918;55.706;37.816;2023-05-29T00:00:02;6.47;;;2.65;;
74469;SDS011;62918;55.706;37.816;2023-05-29T00:00:36;6.30;;;2.88;;
74469;SDS011;62918;55.706;37.816;2023-05-29T00:01:07;7.57;;;2.83;;
74469;SDS011;62918;55.706;37.816;2023-05-29T00:01:39;6.00;;;2.47;;
74469;SDS011;62918;55.706;37.816;2023-05-29T00:02:10;6.13;;;2.65;;
74469;SDS011;62918;55.706;37.816;2023-05-29T00:02:41;6.32;;;2.33;;
74469;SDS011;62918;55.706;37.816;2023-05-29T00:03:15;9.88;;;2.33;;
74469;SDS011;62918;55.706;37.816;2023-05-29T00:03:47;4.55;;;2.53;;
74469;SDS011;62918;55.706;37.816;2023-05-29T00:04:18;5.97;;;2.65;;
74469;SDS011;62918;55.706;37.816;2023-05-29T00:04:48;7.53;;;2.40;;
74469;SDS011;62918;55.706;37.816;2023-05-29T00:05:21;9.02;;;2.50;;
74469;SDS011;62918;55.706;37.816;2023-05-29T00:05:51;8.95;;;3.35;;
74469;SDS011;62918;55.706;37.816;2023-05-29T00:06:23;8.48;;;2.75;;
74469;SDS011;62918;55.706;37.816;2023-05-29T00:06:54;6.13;;;2.53;;
74469;SDS011;62918;55.706;37.816;2023-05-29T00:07:25;9.20;;;3.05;;
74469;SDS011;62918;55.706;37.816;2023-05-29T00:07:56;7.22;;;2.40;;
74469;SDS011;62918;55.706;37.816;2023-05-29T00:08:26;7.90;;;2.60;;
74469;SDS011;62918;55.706;37.816;2023-05-29T00:08:57;8.05;;;2.85;;
74469;SDS011;62918;55.706;37.816;2023-05-29T00:09:28;8.73;;;2.60;;
74469;SDS011;62918;55.706;37.816;2023-05-29T00:09:59;7.65;;;2.75;;
74469;SDS011;62918;55.706;37.816;2023-05-29T00:10:30;10.02;;;2.90;;
74469;SDS011;62918;55.706;37.816;2023-05-29T00:11:01;8.48;;;2.47;;
74469;SDS011;62918;55.706;37.816;2023-05-29T00:11:32;6.25;;;2.47;;
74469;SDS011;62918;55.706;37.816;2023-05-29T00:12:03;8.45;;;2.80;;
74469;SDS011;62918;55.706;37.816;2023-05-29T00:12:36;6.50;;;2.45;;
74469;SDS011;62918;55.706;37.816;2023-05-29T00:13:07;6.28;;;2.88;;
74469;SDS011;62918;55.706;37.816;2023-05-29T00:13:38;8.68;;;3.20;;
74469;SDS011;62918;55.706;37.816;2023-05-29T00:14:08;7.20;;;2.78;;
74469;SDS011;62918;55.706;37.816;2023-05-29T00:14:43;4.35;;;2.10;;
74469;SDS011;62918;55.706;37.816;2023-05-29T00:15:14;7.68;;;2.88;;
74469;SDS011;62918;55.706;37.816;2023-05-29T00:15:45;9.77;;;2.58;;
74469;SDS011;62918;55.706;37.816;2023-05-29T00:16:16;5.88;;;2.85;;
74469;SDS011;62918;55.706;37.816;2023-05-29T00:16:47;8.38;;;3.00;;
74469;SDS011;62918;55.706;37.816;2023-05-29T00:17:19;11.05;;;2.65;;
74469;SDS011;62918;55.706;37.816;2023-05-29T00:17:50;4.35;;;2.38;;
74469;SDS011;62918;55.706;37.816;2023-05-29T00:18:21;6.35;;;2.70;;
74469;SDS011;62918;55.706;37.816;2023-05-29T00:18:52;7.22;;;2.40;;
74469;SDS011;62918;55.706;37.816;2023-05-29T00:19:23;8.63;;;2.47;;
74469;SDS011;62918;55.706;37.816;2023-05-29T00:19:55;7.18;;;2.92;;
74469;SDS011;62918;55.706;37.816;2023-05-29T00:20:25;8.32;;;2.78;;
74469;SDS011;62918;55.706;37.816;2023-05-29T00:20:56;8.90;;;2.92;;
74469;SDS011;62918;55.706;37.816;2023-05-29T00:21:26;5.68;;;2.20;;
74469;SDS011;62918;55.706;37.816;2023-05-29T00:21:57;6.32;;;2.45;;
74469;SDS011;62918;55.706;37.816;2023-05-29T00:22:28;6.38;;;2.88;;
74469;SDS011;62918;55.706;37.816;2023-05-29T00:22:58;6.95;;;2.70;;
74469;SDS011;62918;55.706;37.816;2023-05-29T00:23:29;6.25;;;2.10;;
74469;SDS011;62918;55.706;37.816;2023-05-29T00:24:00;7.18;;;2.53;;
74469;SDS011;62918;55.706;37.816;2023-05-29T00:24:31;7.13;;;2.50;;
74469;SDS011;62918;55.706;37.816;2023-05-29T00:25:01;6.60;;;2.38;;
74469;SDS011;62918;55.706;37.816;2023-05-29T00:25:33;6.82;;;2.50;;
74469;SDS011;62918;55.706;37.816;2023-05-29T00:26:04;10.55;;;2.40;;
74469;SDS011;62918;55.706;37.816;2023-05-29T00:26:34;8.32;;;2.33;;
74469;SDS011;62918;55.706;37.816;2023-05-29T00:27:05;6.10;;;2.55;;
74469;SDS011;62918;55.706;37.816;2023-05-29T00:27:36;7.95;;;2.33;;
74469;SDS011;62918;55.706;37.816;2023-05-29T00:28:07;9.32;;;2.83;;
74469;SDS011;62918;55.706;37.816;2023-05-29T00:28:37;8.73;;;2.30;;
74469;SDS011;62918;55.706;37.816;2023-05-29T00:29:08;6.88;;;2.60;;
74469;SDS011;62918;55.706;37.816;2023-05-29T00:29:39;8.48;;;2.50;;
74469;SDS011;62918;55.706;37.816;2023-05-29T00:30:11;7.00;;;2.08;;
74469;SDS011;62918;55.706;37.816;2023-05-29T00:30:42;6.70;;;2.33;;
74469;SDS011;62918;55.706;37.816;2023-05-29T00:31:12;7.22;;;2.42;;
74469;SDS011;62918;55.706;37.816;2023-05-29T00:31:43;5.90;;;2.22;;
74469;SDS011;62918;55.706;37.816;2023-05-29T00:32:13;6.00;;;2.13;;
74469;SDS011;62918;55.706;37.816;2023-05-29T00:32:44;6.50;;;2.17;;
74469;SDS011;62918;55.706;37.816;2023-05-29T00:33:15;6.05;;;2.10;;
74469;SDS011;62918;55.706;37.816;2023-05-29T00:33:47;5.70;;;2.40;;
74469;SDS011;62918;55.706;37.816;2023-05-29T00:34:22;6.18;;;2.15;;
74469;SDS011;62918;55.706;37.816;2023-05-29T00:34:53;6.32;;;2.40;;
74469;SDS011;62918;55.706;37.816;2023-05-29T00:35:25;4.57;;;2.03;;
74469;SDS011;62918;55.706;37.816;2023-05-29T00:35:56;8.52;;;2.40;;
74469;SDS011;62918;55.706;37.816;2023-05-29T00:36:26;4.82;;;1.92;;
74469;SDS011;62918;55.706;37.816;2023-05-29T00:36:58;4.88;;;1.80;;
74469;SDS011;62918;55.706;37.816;2023-05-29T00:37:29;4.90;;;2.10;;
74469;SDS011;62918;55.706;37.816;2023-05-29T00:38:02;6.22;;;2.03;;
74469;SDS011;62918;55.706;37.816;2023-05-29T00:38:36;3.75;;;1.80;;
74469;SDS011;62918;55.706;37.816;2023-05-29T00:39:06;6.63;;;2.60;;
74469;SDS011;62918;55.706;37.816;2023-05-29T00:39:37;7.22;;;1.90;;
74469;SDS011;62918;55.706;37.816;2023-05-29T00:40:10;5.70;;;2.05;;
74469;SDS011;62918;55.706;37.816;2023-05-29T00:40:41;4.30;;;1.88;;
74469;SDS011;62918;55.706;37.816;2023-05-29T00:41:15;7.82;;;2.00;;
74469;SDS011;62918;55.706;37.816;2023-05-29T00:41:46;7.18;;;2.38;;
74469;SDS011;62918;55.706;37.816;2023-05-29T00:42:20;5.63;;;2.10;;
74469;SDS011;62918;55.706;37.816;2023-05-29T00:42:52;5.00;;;1.83;;
74469;SDS011;62918;55.706;37.816;2023-05-29T00:43:22;5.88;;;1.83;;
74469;SDS011;62918;55.706;37.816;2023-05-29T00:43:53;9.40;;;2.45;;
74469;SDS011;62918;55.706;37.816;2023-05-29T00:44:23;4.88;;;1.88;;
74469;SDS011;62918;55.706;37.816;2023-05-29T00:44:54;6.60;;;2.25;;
74469;SDS011;62918;55.706;37.816;2023-05-29T00:45:27;7.70;;;1.88;;
74469;SDS011;62918;55.706;37.816;2023-05-29T00:45:58;6.93;;;2.28;;
74469;SDS011;62918;55.706;37.816;2023-05-29T00:46:29;4.78;;;1.70;;
74469;SDS011;62918;55.706;37.816;2023-05-29T00:47:00;6.90;;;1.90;;
74469;SDS011;62918;55.706;37.816;2023-05-29T00:47:31;5.05;;;1.92;;
74469;SDS011;62918;55.706;37.816;2023-05-29T00:48:02;5.80;;;1.48;;
74469;SDS011;62918;55.706;37.816;2023-05-29T00:48:34;7.07;;;2.05;;
74469;SDS011;62918;55.706;37.816;2023-05-29T00:49:04;4.78;;;1.83;;
74469;SDS011;62918;55.706;37.816;2023-05-29T00:49:36;4.57;;;2.00;;
74469;SDS011;62918;55.706;37.816;2023-05-29T00:50:10;5.82;;;2.03;;
74469;SDS011;62918;55.706;37.816;2023-05-29T00:50:43;5.18;;;1.90;;
74469;SDS011;62918;55.706;37.816;2023-05-29T00:51:14;7.40;;;2.42;;
74469;SDS011;62918;55.706;37.816;2023-05-29T00:51:46;6.60;;;2.13;;
74469;SDS011;62918;55.706;37.816;2023-05-29T00:52:18;4.88;;;1.60;;
74469;SDS011;62918;55.706;37.816;2023-05-29T00:52:50;6.78;;;2.00;;
74469;SDS011;62918;55.706;37.816;2023-05-29T00:53:21;4.45;;;2.00;;
74469;SDS011;62918;55.706;37.816;2023-05-29T00:53:53;5.07;;;2.45;;
74469;SDS011;62918;55.706;37.816;2023-05-29T00:54:28;3.33;;;1.67;;
74469;SDS011;62918;55.706;37.816;2023-05-29T00:55:00;6.05;;;1.83;;
74469;SDS011;62918;55.706;37.816;2023-05-29T00:55:34;4.65;;;2.38;;
74469;SDS011;62918;55.706;37.816;2023-05-29T00:56:05;5.20;;;2.08;;
74469;SDS011;62918;55.706;37.816;2023-05-29T00:56:38;2.80;;;2.00;;
74469;SDS011;62918;55.706;37.816;2023-05-29T00:57:13;4.95;;;1.85;;
74469;SDS011;62918;55.706;37.816;2023-05-29T00:57:45;6.22;;;2.20;;
74469;SDS011;62918;55.706;37.816;2023-05-29T00:58:16;7.30;;;2.20;;
74469;SDS011;62918;55.706;37.816;2023-05-29T00:58:51;5.57;;;1.73;;
74469;SDS011;62918;55.706;37.816;2023-05-29T00:59:22;4.47;;;2.30;;
74469;SDS011;62918;55.706;37.816;2023-05-29T00:59:53;6.70;;;1.77;;
74469;SDS011;62918;55.706;37.816;2023-05-29T01:00:25;7.20;;;1.45;;
74469;SDS011;62918;55.706;37.816;2023-05-29T01:00:56;7.07;;;1.88;;
74469;SDS011;62918;55.706;37.816;2023-05-29T01:01:27;5.22;;;1.70;;
74469;SDS011;62918;55.706;37.816;2023-05-29T01:01:59;3.53;;;1.80;;
74469;SDS011;62918;55.706;37.816;2023-05-29T01:02:32;5.15;;;2.10;;
74469;SDS011;62918;55.706;37.816;2023-05-29T01:03:03;6.50;;;1.80;;
74469;SDS011;62918;55.706;37.816;2023-05-29T01:03:36;5.60;;;1.83;;
74469;SDS011;62918;55.706;37.816;2023-05-29T01:04:07;7.72;;;2.38;;
74469;SDS011;62918;55.706;37.816;2023-05-29T01:04:37;4.65;;;1.90;;
74469;SDS011;62918;55.706;37.816;2023-05-29T01:05:08;6.65;;;1.70;;
74469;SDS011;62918;55.706;37.816;2023-05-29T01:05:40;5.43;;;1.70;;
74469;SDS011;62918;55.706;37.816;2023-05-29T01:06:11;4.18;;;2.00;;
74469;SDS011;62918;55.706;37.816;2023-05-29T01:06:42;4.40;;;2.25;;
74469;SDS011;62918;55.706;37.816;2023-05-29T01:07:14;5.18;;;1.67;;
74469;SDS011;62918;55.706;37.816;2023-05-29T01:07:45;3.65;;;1.65;;
74469;SDS011;62918;55.706;37.816;2023-05-29T01:08:16;6.65;;;1.63;;
74469;SDS011;62918;55.706;37.816;2023-05-29T01:08:46;16.90;;;2.15;;
74469;SDS011;62918;55.706;37.816;2023-05-29T01:09:17;7.78;;;1.65;;
74469;SDS011;62918;55.706;37.816;2023-05-29T01:09:47;4.88;;;1.83;;
74469;SDS011;62918;55.706;37.816;2023-05-29T01:10:18;3.78;;;1.92;;
74469;SDS011;62918;55.706;37.816;2023-05-29T01:10:50;4.40;;;2.00;;
74469;SDS011;62918;55.706;37.816;2023-05-29T01:11:28;3.85;;;2.20;;
74469;SDS011;62918;55.706;37.816;2023-05-29T01:12:19;7.07;;;1.55;;
74469;SDS011;62918;55.706;37.816;2023-05-29T01:13:00;4.97;;;1.58;;
74469;SDS011;62918;55.706;37.816;2023-05-29T01:13:38;5.75;;;2.22;;
74469;SDS011;62918;55.706;37.816;2023-05-29T01:14:17;8.95;;;2.38;;
74469;SDS011;62918;55.706;37.816;2023-05-29T01:15:16;8.55;;;1.65;;
74469;SDS011;62918;55.706;37.816;2023-05-29T01:16:42;4.47;;;1.95;;
74469;SDS011;62918;55.706;37.816;2023-05-29T01:18:17;3.78;;;1.88;;
74469;SDS011;62918;55.706;37.816;2023-05-29T01:24:03;5.60;;;2.10;;
74469;SDS011;62918;55.706;37.816;2023-05-29T01:24:48;6.07;;;1.77;;
74469;SDS011;62918;55.706;37.816;2023-05-29T01:27:09;4.65;;;1.52;;
74469;SDS011;62918;55.706;37.816;2023-05-29T01:27:41;4.38;;;1.73;;
74469;SDS011;62918;55.706;37.816;2023-05-29T01:28:15;8.00;;;1.90;;
74469;SDS011;62918;55.706;37.816;2023-05-29T01:28:48;7.18;;;1.55;;
74469;SDS011;62918;55.706;37.816;2023-05-29T01:29:23;5.05;;;1.52;;
74469;SDS011;62918;55.706;37.816;2023-05-29T01:29:57;3.17;;;1.63;;
74469;SDS011;62918;55.706;37.816;2023-05-29T01:30:29;6.25;;;2.50;;
74469;SDS011;62918;55.706;37.816;2023-05-29T01:31:02;7.38;;;2.10;;
74469;SDS011;62918;55.706;37.816;2023-05-29T01:31:35;7.43;;;1.92;;
74469;SDS011;62918;55.706;37.816;2023-05-29T01:32:38;7.75;;;2.15;;
74469;SDS011;62918;55.706;37.816;2023-05-29T01:33:09;6.10;;;1.98;;
74469;SDS011;62918;55.706;37.816;2023-05-29T01:33:40;4.82;;;1.92;;
74469;SDS011;62918;55.706;37.816;2023-05-29T01:34:11;5.68;;;1.92;;
74469;SDS011;62918;55.706;37.816;2023-05-29T01:34:42;6.10;;;1.80;;
74469;SDS011;62918;55.706;37.816;2023-05-29T01:35:12;8.15;;;1.80;;
74469;SDS011;62918;55.706;37.816;2023-05-29T01:35:43;5.63;;;1.92;;
74469;SDS011;62918;55.706;37.816;2023-05-29T01:36:14;4.63;;;1.85;;
74469;SDS011;62918;55.706;37.816;2023-05-29T01:36:44;4.50;;;2.40;;
74469;SDS011;62918;55.706;37.816;2023-05-29T01:37:16;4.20;;;2.00;;
74469;SDS011;62918;55.706;37.816;2023-05-29T01:37:47;6.13;;;1.85;;
74469;SDS011;62918;55.706;37.816;2023-05-29T01:38:17;5.45;;;1.98;;
74469;SDS011;62918;55.706;37.816;2023-05-29T01:38:49;7.03;;;2.22;;
74469;SDS011;62918;55.706;37.816;2023-05-29T01:39:21;3.95;;;1.73;;
74469;SDS011;62918;55.706;37.816;2023-05-29T01:39:53;5.72;;;1.80;;
74469;SDS011;62918;55.706;37.816;2023-05-29T01:40:24;5.50;;;2.35;;
74469;SDS011;62918;55.706;37.816;2023-05-29T01:40:55;6.13;;;2.35;;
74469;SDS011;62918;55.706;37.816;2023-05-29T01:41:25;7.57;;;2.10;;
74469;SDS011;62918;55.706;37.816;2023-05-29T01:41:57;5.53;;;1.90;;
74469;SDS011;62918;55.706;37.816;2023-05-29T01:42:29;7.05;;;1.73;;
74469;SDS011;62918;55.706;37.816;2023-05-29T01:43:01;6.47;;;1.95;;
74469;SDS011;62918;55.706;37.816;2023-05-29T01:43:32;5.28;;;1.83;;
74469;SDS011;62918;55.706;37.816;2023-05-29T01:44:05;3.78;;;1.85;;
74469;SDS011;62918;55.706;37.816;2023-05-29T01:44:38;5.40;;;1.88;;
74469;SDS011;62918;55.706;37.816;2023-05-29T01:45:10;6.30;;;1.95;;
74469;SDS011;62918;55.706;37.816;2023-05-29T01:45:42;3.63;;;2.13;;
74469;SDS011;62918;55.706;37.816;2023-05-29T01:46:13;4.82;;;1.55;;
74469;SDS011;62918;55.706;37.816;2023-05-29T01:46:45;5.45;;;2.33;;
74469;SDS011;62918;55.706;37.816;2023-05-29T01:47:16;5.57;;;1.85;;
74469;SDS011;62918;55.706;37.816;2023-05-29T01:47:47;5.65;;;1.73;;
74469;SDS011;62918;55.706;37.816;2023-05-29T01:48:18;8.23;;;2.40;;
74469;SDS011;62918;55.706;37.816;2023-05-29T01:48:49;5.75;;;2.00;;
74469;SDS011;62918;55.706;37.816;2023-05-29T01:49:20;5.18;;;1.90;;
74469;SDS011;62918;55.706;37.816;2023-05-29T01:49:53;6.65;;;2.13;;
74469;SDS011;62918;55.706;37.816;2023-05-29T01:50:25;6.13;;;2.35;;
74469;SDS011;62918;55.706;37.816;2023-05-29T01:50:57;4.07;;;2.28;;
74469;SDS011;62918;55.706;37.816;2023-05-29T01:51:29;5.65;;;1.77;;
74469;SDS011;62918;55.706;37.816;2023-05-29T01:52:32;5.30;;;2.22;;
74469;SDS011;62918;55.706;37.816;2023-05-29T01:53:02;4.38;;;1.95;;
74469;SDS011;62918;55.706;37.816;2023-05-29T01:53:33;5.15;;;1.85;;
74469;SDS011;62918;55.706;37.816;2023-05-29T01:54:04;6.97;;;2.17;;
74469;SDS011;62918;55.706;37.816;2023-05-29T01:54:38;7.28;;;2.70;;
74469;SDS011;62918;55.706;37.816;2023-05-29T01:55:09;7.03;;;2.03;;
74469;SDS011;62918;55.706;37.816;2023-05-29T01:55:40;4.50;;;2.03;;
74469;SDS011;62918;55.706;37.816;2023-05-29T01:56:11;4.40;;;2.03;;
74469;SDS011;62918;55.706;37.816;2023-05-29T01:56:43;7.07;;;1.98;;
74469;SDS011;62918;55.706;37.816;2023-05-29T01:57:15;7.47;;;2.33;;
74469;SDS011;62918;55.706;37.816;2023-05-29T01:57:46;5.50;;;2.45;;
74469;SDS011;62918;55.706;37.816;2023-05-29T01:58:50;4.57;;;2.20;;
74469;SDS011;62918;55.706;37.816;2023-05-29T01:59:22;6.90;;;2.33;;
74469;SDS011;62918;55.706;37.816;2023-05-29T01:59:56;4.70;;;2.15;;
74469;SDS011;62918;55.706;37.816;2023-05-29T02:00:26;5.70;;;2.20;;
74469;SDS011;62918;55.706;37.816;2023-05-29T02:00:57;6.15;;;2.50;;
74469;SDS011;62918;55.706;37.816;2023-05-29T02:01:40;6.68;;;1.85;;
74469;SDS011;62918;55.706;37.816;2023-05-29T02:02:11;7.15;;;1.90;;
74469;SDS011;62918;55.706;37.816;2023-05-29T02:02:42;5.28;;;1.75;;
74469;SDS011;62918;55.706;37.816;2023-05-29T02:03:13;7.32;;;1.85;;
74469;SDS011;62918;55.706;37.816;2023-05-29T02:03:43;6.15;;;2.92;;
74469;SDS011;62918;55.706;37.816;2023-05-29T02:04:14;6.15;;;2.50;;
74469;SDS011;62918;55.706;37.816;2023-05-29T02:04:45;4.47;;;2.10;;
74469;SDS011;62918;55.706;37.816;2023-05-29T02:05:15;5.63;;;3.13;;
74469;SDS011;62918;55.706;37.816;2023-05-29T02:05:47;6.13;;;2.10;;
74469;SDS011;62918;55.706;37.816;2023-05-29T02:06:18;7.10;;;2.20;;
74469;SDS011;62918;55.706;37.816;2023-05-29T02:06:49;5.93;;;2.85;;
74469;SDS011;62918;55.706;37.816;2023-05-29T02:07:23;6.90;;;2.80;;
74469;SDS011;62918;55.706;37.816;2023-05-29T02:07:54;5.05;;;2.53;;
74469;SDS011;62918;55.706;37.816;2023-05-29T02:08:24;7.40;;;2.33;;
74469;SDS011;62918;55.706;37.816;2023-05-29T02:08:56;4.65;;;2.65;;
74469;SDS011;62918;55.706;37.816;2023-05-29T02:09:26;5.97;;;2.05;;
74469;SDS011;62918;55.706;37.816;2023-05-29T02:09:57;6.72;;;2.97;;
74469;SDS011;62918;55.706;37.816;2023-05-29T02:10:28;7.43;;;3.33;;
74469;SDS011;62918;55.706;37.816;2023-05-29T02:11:00;6.18;;;2.10;;
74469;SDS011;62918;55.706;37.816;2023-05-29T02:11:30;3.60;;;3.10;;
74469;SDS011;62918;55.706;37.816;2023-05-29T02:12:01;4.75;;;3.20;;
74469;SDS011;62918;55.706;37.816;2023-05-29T02:12:32;4.55;;;3.03;;
74469;SDS011;62918;55.706;37.816;2023-05-29T02:13:02;5.38;;;2.60;;
74469;SDS011;62918;55.706;37.816;2023-05-29T02:13:33;5.03;;;2.85;;
74469;SDS011;62918;55.706;37.816;2023-05-29T02:14:04;5.10;;;2.72;;
74469;SDS011;62918;55.706;37.816;2023-05-29T02:14:35;4.80;;;2.28;;
74469;SDS011;62918;55.706;37.816;2023-05-29T02:15:07;4.75;;;2.90;;
74469;SDS011;62918;55.706;37.816;2023-05-29T02:15:38;5.57;;;2.88;;
74469;SDS011;62918;55.706;37.816;2023-05-29T02:16:09;6.25;;;3.05;;
74469;SDS011;62918;55.706;37.816;2023-05-29T02:16:40;7.85;;;3.28;;
74469;SDS011;62918;55.706;37.816;2023-05-29T02:17:11;4.07;;;2.28;;
74469;SDS011;62918;55.706;37.816;2023-05-29T02:17:41;4.97;;;2.47;;
74469;SDS011;62918;55.706;37.816;2023-05-29T02:18:13;5.63;;;2.10;;
74469;SDS011;62918;55.706;37.816;2023-05-29T02:19:15;4.57;;;2.85;;
74469;SDS011;62918;55.706;37.816;2023-05-29T02:19:46;5.25;;;2.95;;
74469;SDS011;62918;55.706;37.816;2023-05-29T02:20:21;4.88;;;2.53;;
74469;SDS011;62918;55.706;37.816;2023-05-29T02:20:51;8.13;;;2.95;;
74469;SDS011;62918;55.706;37.816;2023-05-29T02:21:22;6.32;;;2.85;;
74469;SDS011;62918;55.706;37.816;2023-05-29T02:21:53;4.90;;;3.00;;
74469;SDS011;62918;55.706;37.816;2023-05-29T02:22:24;9.15;;;2.67;;
74469;SDS011;62918;55.706;37.816;2023-05-29T02:22:54;4.72;;;2.38;;
74469;SDS011;62918;55.706;37.816;2023-05-29T02:23:25;5.70;;;2.42;;
74469;SDS011;62918;55.706;37.816;2023-05-29T02:23:55;6.28;;;2.67;;
74469;SDS011;62918;55.706;37.816;2023-05-29T02:24:26;6.20;;;2.97;;
74469;SDS011;62918;55.706;37.816;2023-05-29T02:24:56;7.18;;;3.40;;
74469;SDS011;62918;55.706;37.816;2023-05-29T02:25:27;4.55;;;2.55;;
74469;SDS011;62918;55.706;37.816;2023-05-29T02:25:58;6.15;;;2.22;;
74469;SDS011;62918;55.706;37.816;2023-05-29T02:26:28;6.82;;;3.08;;
74469;SDS011;62918;55.706;37.816;2023-05-29T02:26:59;8.20;;;2.88;;
74469;SDS011;62918;55.706;37.816;2023-05-29T02:27:31;8.13;;;2.83;;
74469;SDS011;62918;55.706;37.816;2023-05-29T02:28:01;6.75;;;2.83;;
74469;SDS011;62918;55.706;37.816;2023-05-29T02:28:33;5.72;;;2.90;;
74469;SDS011;62918;55.706;37.816;2023-05-29T02:29:03;6.47;;;3.05;;
74469;SDS011;62918;55.706;37.816;2023-05-29T02:29:37;5.57;;;2.88;;
74469;SDS011;62918;55.706;37.816;2023-05-29T02:30:08;6.70;;;2.97;;
74469;SDS011;62918;55.706;37.816;2023-05-29T02:30:38;5.45;;;2.75;;
74469;SDS011;62918;55.706;37.816;2023-05-29T02:31:09;4.68;;;2.67;;
74469;SDS011;62918;55.706;37.816;2023-05-29T02:31:40;5.65;;;2.72;;
74469;SDS011;62918;55.706;37.816;2023-05-29T02:32:10;6.53;;;2.92;;
74469;SDS011;62918;55.706;37.816;2023-05-29T02:32:41;6.95;;;2.63;;
74469;SDS011;62918;55.706;37.816;2023-05-29T02:33:12;4.15;;;2.80;;
74469;SDS011;62918;55.706;37.816;2023-05-29T02:33:42;8.68;;;3.35;;
74469;SDS011;62918;55.706;37.816;2023-05-29T02:34:13;4.05;;;2.20;;
74469;SDS011;62918;55.706;37.816;2023-05-29T02:34:43;6.38;;;3.03;;
74469;SDS011;62918;55.706;37.816;2023-05-29T02:35:14;6.15;;;3.15;;
74469;SDS011;62918;55.706;37.816;2023-05-29T02:35:45;4.32;;;2.75;;
74469;SDS011;62918;55.706;37.816;2023-05-29T02:36:16;5.47;;;3.05;;
74469;SDS011;62918;55.706;37.816;2023-05-29T02:36:47;10.00;;;3.38;;
74469;SDS011;62918;55.706;37.816;2023-05-29T02:37:18;7.38;;;2.97;;
74469;SDS011;62918;55.706;37.816;2023-05-29T02:37:49;4.85;;;3.00;;
74469;SDS011;62918;55.706;37.816;2023-05-29T02:38:20;8.10;;;3.28;;
74469;SDS011;62918;55.706;37.816;2023-05-29T02:38:54;6.05;;;2.58;;
74469;SDS011;62918;55.706;37.816;2023-05-29T02:39:24;9.10;;;2.80;;
74469;SDS011;62918;55.706;37.816;2023-05-29T02:39:55;4.10;;;2.20;;
74469;SDS011;62918;55.706;37.816;2023-05-29T02:40:25;6.28;;;2.90;;
74469;SDS011;62918;55.706;37.816;2023-05-29T02:40:56;6.22;;;3.25;;
74469;SDS011;62918;55.706;37.816;2023-05-29T02:41:27;4.28;;;2.78;;
74469;SDS011;62918;55.706;37.816;2023-05-29T02:41:58;8.45;;;3.25;;
74469;SDS011;62918;55.706;37.816;2023-05-29T02:42:28;9.20;;;3.30;;
74469;SDS011;62918;55.706;37.816;2023-05-29T02:42:59;7.15;;;2.65;;
74469;SDS011;62918;55.706;37.816;2023-05-29T02:43:30;4.93;;;3.33;;
74469;SDS011;62918;55.706;37.816;2023-05-29T02:44:00;10.18;;;3.13;;
74469;SDS011;62918;55.706;37.816;2023-05-29T02:44:31;8.20;;;2.63;;
74469;SDS011;62918;55.706;37.816;2023-05-29T02:45:05;7.43;;;2.92;;
74469;SDS011;62918;55.706;37.816;2023-05-29T02:45:35;6.88;;;2.72;;
74469;SDS011;62918;55.706;37.816;2023-05-29T02:46:06;4.85;;;3.13;;
74469;SDS011;62918;55.706;37.816;2023-05-29T02:46:37;6.07;;;3.15;;
74469;SDS011;62918;55.706;37.816;2023-05-29T02:47:07;9.05;;;3.30;;
74469;SDS011;62918;55.706;37.816;2023-05-29T02:47:40;7.10;;;3.05;;
74469;SDS011;62918;55.706;37.816;2023-05-29T02:48:11;4.53;;;2.72;;
74469;SDS011;62918;55.706;37.816;2023-05-29T02:48:41;5.53;;;3.03;;
74469;SDS011;62918;55.706;37.816;2023-05-29T02:49:12;4.57;;;3.00;;
74469;SDS011;62918;55.706;37.816;2023-05-29T02:49:42;4.95;;;2.92;;
74469;SDS011;62918;55.706;37.816;2023-05-29T02:50:13;5.78;;;3.50;;
74469;SDS011;62918;55.706;37.816;2023-05-29T02:50:44;7.72;;;2.78;;
74469;SDS011;62918;55.706;37.816;2023-05-29T02:51:15;6.72;;;2.90;;
74469;SDS011;62918;55.706;37.816;2023-05-29T02:51:46;5.72;;;2.95;;
74469;SDS011;62918;55.706;37.816;2023-05-29T02:52:16;5.18;;;3.13;;
74469;SDS011;62918;55.706;37.816;2023-05-29T02:52:47;8.38;;;2.42;;
74469;SDS011;62918;55.706;37.816;2023-05-29T02:53:18;5.45;;;3.05;;
74469;SDS011;62918;55.706;37.816;2023-05-29T02:53:48;5.47;;;3.10;;
74469;SDS011;62918;55.706;37.816;2023-05-29T02:54:19;6.47;;;3.40;;
74469;SDS011;62918;55.706;37.816;2023-05-29T02:54:50;6.22;;;3.15;;
74469;SDS011;62918;55.706;37.816;2023-05-29T02:55:21;6.47;;;3.15;;
74469;SDS011;62918;55.706;37.816;2023-05-29T02:55:51;4.93;;;2.42;;
74469;SDS011;62918;55.706;37.816;2023-05-29T02:56:22;9.05;;;2.80;;
74469;SDS011;62918;55.706;37.816;2023-05-29T02:56:56;6.93;;;2.90;;
74469;SDS011;62918;55.706;37.816;2023-05-29T02:57:26;5.90;;;2.83;;
74469;SDS011;62918;55.706;37.816;2023-05-29T02:57:57;3.65;;;2.40;;
74469;SDS011;62918;55.706;37.816;2023-05-29T02:58:29;6.45;;;2.88;;
74469;SDS011;62918;55.706;37.816;2023-05-29T02:59:00;9.35;;;3.05;;
74469;SDS011;62918;55.706;37.816;2023-05-29T02:59:31;8.10;;;2.83;;
74469;SDS011;62918;55.706;37.816;2023-05-29T03:00:02;7.55;;;2.88;;
74469;SDS011;62918;55.706;37.816;2023-05-29T03:00:37;5.93;;;3.13;;
74469;SDS011;62918;55.706;37.816;2023-05-29T03:01:10;8.60;;;3.30;;
74469;SDS011;62918;55.706;37.816;2023-05-29T03:01:41;8.00;;;2.97;;
74469;SDS011;62918;55.706;37.816;2023-05-29T03:02:12;7.30;;;3.33;;
74469;SDS011;62918;55.706;37.816;2023-05-29T03:02:43;7.88;;;2.95;;
74469;SDS011;62918;55.706;37.816;2023-05-29T03:03:13;3.90;;;2.55;;
74469;SDS011;62918;55.706;37.816;2023-05-29T03:03:44;5.30;;;2.97;;
74469;SDS011;62918;55.706;37.816;2023-05-29T03:04:15;7.88;;;3.10;;
74469;SDS011;62918;55.706;37.816;2023-05-29T03:04:47;9.75;;;3.53;;
74469;SDS011;62918;55.706;37.816;2023-05-29T03:05:21;7.97;;;3.67;;
74469;SDS011;62918;55.706;37.816;2023-05-29T03:05:51;9.10;;;3.35;;
74469;SDS011;62918;55.706;37.816;2023-05-29T03:06:22;5.07;;;3.85;;
74469;SDS011;62918;55.706;37.816;2023-05-29T03:06:52;6.03;;;3.15;;
74469;SDS011;62918;55.706;37.816;2023-05-29T03:07:24;8.23;;;2.63;;
74469;SDS011;62918;55.706;37.816;2023-05-29T03:07:55;5.75;;;1.92;;
74469;SDS011;62918;55.706;37.816;2023-05-29T03:08:26;4.97;;;2.78;;
74469;SDS011;62918;55.706;37.816;2023-05-29T03:08:58;5.00;;;2.85;;
74469;SDS011;62918;55.706;37.816;2023-05-29T03:09:29;8.13;;;3.38;;
74469;SDS011;62918;55.706;37.816;2023-05-29T03:10:00;4.38;;;2.75;;
74469;SDS011;62918;55.706;37.816;2023-05-29T03:10:31;5.45;;;2.92;;
74469;SDS011;62918;55.706;37.816;2023-05-29T03:11:01;5.60;;;3.15;;
74469;SDS011;62918;55.706;37.816;2023-05-29T03:11:32;6.10;;;3.42;;
74469;SDS011;62918;55.706;37.816;2023-05-29T03:12:05;5.50;;;3.08;;
74469;SDS011;62918;55.706;37.816;2023-05-29T03:12:37;5.63;;;2.58;;
74469;SDS011;62918;55.706;37.816;2023-05-29T03:13:08;8.27;;;2.95;;
74469;SDS011;62918;55.706;37.816;2023-05-29T03:13:38;8.05;;;3.03;;
74469;SDS011;62918;55.706;37.816;2023-05-29T03:14:09;6.65;;;3.83;;
74469;SDS011;62918;55.706;37.816;2023-05-29T03:14:39;9.55;;;2.88;;
74469;SDS011;62918;55.706;37.816;2023-05-29T03:15:10;6.28;;;2.92;;
74469;SDS011;62918;55.706;37.816;2023-05-29T03:15:41;4.32;;;2.95;;
74469;SDS011;62918;55.706;37.816;2023-05-29T03:16:11;6.95;;;2.65;;
74469;SDS011;62918;55.706;37.816;2023-05-29T03:16:43;6.72;;;2.72;;
74469;SDS011;62918;55.706;37.816;2023-05-29T03:17:13;4.78;;;3.45;;
74469;SDS011;62918;55.706;37.816;2023-05-29T03:17:44;8.93;;;3.00;;
74469;SDS011;62918;55.706;37.816;2023-05-29T03:18:17;5.03;;;2.90;;